createdAt,value
2019-03-13T00:01:01.507Z,5.60
2019-03-13T00:03:30.741Z,5.60
2019-03-13T00:05:59.960Z,5.60
2019-03-13T00:08:29.106Z,5.60
2019-03-13T00:10:58.335Z,5.60
2019-03-13T00:13:27.534Z,5.60
2019-03-13T00:15:56.818Z,5.60
2019-03-13T00:18:25.965Z,5.60
2019-03-13T00:20:55.144Z,5.50
2019-03-13T00:23:24.260Z,5.50
2019-03-13T00:25:53.439Z,5.40
2019-03-13T00:28:22.569Z,5.40
2019-03-13T00:30:51.858Z,5.40
2019-03-13T00:33:21.050Z,5.30
2019-03-13T00:35:50.350Z,5.30
2019-03-13T00:38:19.492Z,5.30
2019-03-13T00:40:48.650Z,5.30
2019-03-13T00:43:17.853Z,5.30
2019-03-13T00:45:47.016Z,5.20
2019-03-13T00:48:16.152Z,5.20
2019-03-13T00:50:45.308Z,5.30
2019-03-13T00:53:14.454Z,5.30
2019-03-13T00:55:43.620Z,5.30
2019-03-13T00:58:12.858Z,5.20
2019-03-13T01:01:01.079Z,5.20
2019-03-13T01:03:52.576Z,5.20
2019-03-13T01:06:25.007Z,5.20
2019-03-13T01:08:54.165Z,5.20
2019-03-13T01:11:23.383Z,5.20
2019-03-13T01:13:52.561Z,5.20
2019-03-13T01:16:21.772Z,5.10
2019-03-13T01:18:50.948Z,5.20
2019-03-13T01:21:20.086Z,5.20
2019-03-13T01:23:49.224Z,5.10
2019-03-13T01:26:18.413Z,5.10
2019-03-13T01:28:47.538Z,5.10
2019-03-13T01:31:44.996Z,5.20
2019-03-13T01:34:30.143Z,5.20
2019-03-13T01:36:59.283Z,5.20
2019-03-13T01:39:28.427Z,5.20
2019-03-13T01:41:57.645Z,5.20
2019-03-13T01:44:26.866Z,5.20
2019-03-13T01:46:55.988Z,5.10
2019-03-13T01:49:25.165Z,5.20
2019-03-13T01:51:54.311Z,5.00
2019-03-13T01:54:23.533Z,5.00
2019-03-13T01:56:52.679Z,5.00
2019-03-13T01:59:21.821Z,5.00
2019-03-13T02:01:51.014Z,5.00
2019-03-13T02:04:20.143Z,5.00
2019-03-13T02:06:49.319Z,5.00
2019-03-13T02:09:18.595Z,5.00
2019-03-13T02:11:47.746Z,4.90
2019-03-13T02:14:16.947Z,4.90
2019-03-13T02:16:46.195Z,5.00
2019-03-13T02:19:15.335Z,5.00
2019-03-13T02:21:44.515Z,5.00
2019-03-13T02:24:13.663Z,5.00
2019-03-13T02:26:43.219Z,5.00
2019-03-13T02:29:12.383Z,4.90
2019-03-13T02:31:41.536Z,4.90
2019-03-13T02:34:10.967Z,4.90
2019-03-13T02:36:40.136Z,4.90
2019-03-13T02:39:09.275Z,4.90
2019-03-13T02:41:38.468Z,4.90
2019-03-13T02:44:07.633Z,4.90
2019-03-13T02:46:36.869Z,4.90
2019-03-13T02:49:05.954Z,4.90
2019-03-13T02:51:35.186Z,4.90
2019-03-13T02:54:04.394Z,5.00
2019-03-13T02:56:33.511Z,5.00
2019-03-13T02:59:02.767Z,5.00
2019-03-13T03:01:43.775Z,5.00
2019-03-13T03:04:12.907Z,5.00
2019-03-13T03:06:42.125Z,5.10
2019-03-13T03:09:11.422Z,5.10
2019-03-13T03:11:40.596Z,5.10
2019-03-13T03:14:09.740Z,5.10
2019-03-13T03:16:39.043Z,5.10
2019-03-13T03:19:08.165Z,5.10
2019-03-13T03:21:37.303Z,5.10
2019-03-13T03:24:06.479Z,5.10
2019-03-13T03:26:35.631Z,5.10
2019-03-13T03:29:04.810Z,5.10
2019-03-13T03:31:33.945Z,5.20
2019-03-13T03:34:04.846Z,5.20
2019-03-13T03:36:34.188Z,5.20
2019-03-13T03:39:04.904Z,5.20
2019-03-13T03:41:34.327Z,5.20
2019-03-13T03:44:03.543Z,5.20
2019-03-13T03:46:32.779Z,5.10
2019-03-13T03:49:01.982Z,5.10
2019-03-13T03:51:31.128Z,5.00
2019-03-13T03:54:00.328Z,5.00
2019-03-13T03:56:29.517Z,5.00
2019-03-13T03:58:58.703Z,5.00
2019-03-13T04:01:27.950Z,4.90
2019-03-13T04:03:57.257Z,5.00
2019-03-13T04:06:26.549Z,5.00
2019-03-13T04:08:55.709Z,5.00
2019-03-13T04:11:24.870Z,5.00
2019-03-13T04:13:53.994Z,5.00
2019-03-13T04:16:24.358Z,5.00
2019-03-13T04:18:53.566Z,5.00
2019-03-13T04:21:22.837Z,5.00
2019-03-13T04:23:52.000Z,5.00
2019-03-13T04:26:21.173Z,5.00
2019-03-13T04:28:50.328Z,5.00
2019-03-13T04:31:19.497Z,5.00
2019-03-13T04:33:48.644Z,5.00
2019-03-13T04:36:17.839Z,5.00
2019-03-13T04:38:46.991Z,5.00
2019-03-13T04:41:16.197Z,5.00
2019-03-13T04:43:45.324Z,5.00
2019-03-13T04:46:14.457Z,5.00
2019-03-13T04:48:43.615Z,5.10
2019-03-13T04:51:12.764Z,5.00
2019-03-13T04:53:42.020Z,5.00
2019-03-13T04:56:11.175Z,5.00
2019-03-13T04:58:40.325Z,5.00
2019-03-13T05:01:09.643Z,5.00
2019-03-13T05:03:38.801Z,5.00
2019-03-13T05:06:22.246Z,5.00
2019-03-13T05:09:18.458Z,5.00
2019-03-13T05:11:47.745Z,5.00
2019-03-13T05:14:16.907Z,5.00
2019-03-13T05:16:46.040Z,4.90
2019-03-13T05:19:15.331Z,4.90
2019-03-13T05:21:44.486Z,4.90
2019-03-13T05:24:13.679Z,5.00
2019-03-13T05:26:42.841Z,5.00
2019-03-13T05:29:12.003Z,4.90
2019-03-13T05:31:41.167Z,4.90
2019-03-13T05:34:10.325Z,4.90
2019-03-13T05:36:39.498Z,4.80
2019-03-13T05:39:08.872Z,4.80
2019-03-13T05:41:38.040Z,4.80
2019-03-13T05:44:07.186Z,4.70
2019-03-13T05:46:36.320Z,4.80
2019-03-13T05:49:05.460Z,4.80
2019-03-13T05:51:34.509Z,4.70
2019-03-13T05:54:03.869Z,4.70
2019-03-13T05:56:33.030Z,4.70
2019-03-13T05:59:02.155Z,4.70
2019-03-13T06:01:31.396Z,4.70
2019-03-13T06:04:00.562Z,4.60
2019-03-13T06:06:29.692Z,4.60
2019-03-13T06:08:58.920Z,4.60
2019-03-13T06:11:28.059Z,4.60
2019-03-13T06:13:57.268Z,4.60
2019-03-13T06:16:26.401Z,4.60
2019-03-13T06:18:55.544Z,4.60
2019-03-13T06:21:24.768Z,4.60
2019-03-13T06:23:53.901Z,4.60
2019-03-13T06:26:23.089Z,4.60
2019-03-13T06:28:52.228Z,4.70
2019-03-13T06:31:21.363Z,4.60
2019-03-13T06:33:50.643Z,4.70
2019-03-13T06:36:19.786Z,4.70
2019-03-13T06:38:48.959Z,4.70
2019-03-13T06:41:18.149Z,4.60
2019-03-13T06:43:47.388Z,4.60
2019-03-13T06:46:16.554Z,4.70
2019-03-13T06:48:49.691Z,4.80
2019-03-13T06:51:19.150Z,4.80
2019-03-13T06:53:48.406Z,4.80
2019-03-13T06:56:17.532Z,4.90
2019-03-13T06:59:02.610Z,5.10
2019-03-13T07:01:53.386Z,5.20
2019-03-13T07:04:44.741Z,5.20
2019-03-13T07:07:38.663Z,5.20
2019-03-13T07:10:17.062Z,5.20
2019-03-13T07:13:12.136Z,5.30
2019-03-13T07:15:49.216Z,5.30
2019-03-13T07:18:40.501Z,5.20
2019-03-13T07:21:23.325Z,5.20
2019-03-13T07:24:10.419Z,5.30
2019-03-13T07:26:55.154Z,5.40
2019-03-13T07:29:37.028Z,5.40
2019-03-13T07:32:21.416Z,5.40
2019-03-13T07:35:02.677Z,5.30
2019-03-13T07:37:44.281Z,5.30
2019-03-13T07:40:41.569Z,5.20
2019-03-13T07:43:35.639Z,5.20
2019-03-13T07:46:20.035Z,5.20
2019-03-13T07:49:14.061Z,5.10
2019-03-13T07:51:56.033Z,5.00
2019-03-13T07:54:39.387Z,4.90
2019-03-13T07:57:14.278Z,4.90
2019-03-13T08:00:01.307Z,4.90
2019-03-13T08:02:42.693Z,4.80
2019-03-13T08:05:27.055Z,4.90
2019-03-13T08:08:09.963Z,5.00
2019-03-13T08:11:00.977Z,5.00
2019-03-13T08:13:49.131Z,5.10
2019-03-13T08:16:37.325Z,5.10
2019-03-13T08:19:31.313Z,5.20
2019-03-13T08:22:18.023Z,5.20
2019-03-13T08:25:08.071Z,5.40
2019-03-13T08:28:11.385Z,5.40
2019-03-13T08:31:17.764Z,5.40
2019-03-13T08:34:16.502Z,5.40
2019-03-13T08:37:04.685Z,5.40
2019-03-13T08:39:44.061Z,5.30
2019-03-13T08:42:28.286Z,5.30
2019-03-13T08:45:16.595Z,5.30
2019-03-13T08:48:10.927Z,5.40
2019-03-13T08:50:48.972Z,5.40
2019-03-13T08:53:40.362Z,5.30
2019-03-13T08:56:15.264Z,5.30
2019-03-13T08:58:54.730Z,5.20
2019-03-13T09:01:48.104Z,5.30
2019-03-13T09:04:34.833Z,5.60
2019-03-13T09:07:25.855Z,5.90
2019-03-13T09:10:23.240Z,6.20
2019-03-13T09:13:05.464Z,6.20
2019-03-13T09:15:50.460Z,5.90
2019-03-13T09:18:38.336Z,5.60
2019-03-13T09:21:15.263Z,5.40
2019-03-13T09:24:05.868Z,5.40
2019-03-13T09:26:43.162Z,5.30
2019-03-13T09:29:24.985Z,5.30
2019-03-13T09:32:19.218Z,5.20
2019-03-13T09:35:01.164Z,5.30
2019-03-13T09:37:40.373Z,5.20
2019-03-13T09:40:33.982Z,5.20
2019-03-13T09:43:13.564Z,5.00
2019-03-13T09:46:04.743Z,5.00
2019-03-13T09:49:01.768Z,4.90
2019-03-13T09:51:44.533Z,4.90
2019-03-13T09:54:36.600Z,4.90
2019-03-13T09:57:30.806Z,5.00
2019-03-13T10:00:21.826Z,4.90
2019-03-13T10:03:00.959Z,4.90
2019-03-13T10:05:46.180Z,5.00
2019-03-13T10:08:28.198Z,5.00
2019-03-13T10:11:19.621Z,5.10
2019-03-13T10:14:01.206Z,5.10
2019-03-13T10:16:40.418Z,5.00
2019-03-13T10:19:43.699Z,4.90
2019-03-13T10:22:40.782Z,4.80
2019-03-13T10:25:18.911Z,4.90
2019-03-13T10:28:02.847Z,4.90
2019-03-13T10:30:37.812Z,5.20
2019-03-13T10:33:32.079Z,5.40
2019-03-13T10:36:08.533Z,5.40
2019-03-13T10:38:59.510Z,5.50
2019-03-13T10:41:46.494Z,5.60
2019-03-13T10:44:43.858Z,5.60
2019-03-13T10:47:34.848Z,5.80
2019-03-13T10:50:22.474Z,6.00
2019-03-13T10:53:22.614Z,6.10
2019-03-13T10:56:10.018Z,5.90
2019-03-13T10:58:49.248Z,6.00
2019-03-13T11:01:40.300Z,6.10
2019-03-13T11:04:22.263Z,6.10
2019-03-13T11:07:09.305Z,6.20
2019-03-13T11:10:00.542Z,6.30
2019-03-13T11:12:35.400Z,6.40
2019-03-13T11:15:30.415Z,6.50
2019-03-13T11:18:05.374Z,6.50
2019-03-13T11:20:52.694Z,6.60
2019-03-13T11:23:40.887Z,6.50
2019-03-13T11:26:28.030Z,6.60
2019-03-13T11:29:09.495Z,6.50
2019-03-13T11:31:45.447Z,6.60
2019-03-13T11:34:24.175Z,6.50
2019-03-13T11:37:08.404Z,6.60
2019-03-13T11:39:56.611Z,6.80
2019-03-13T11:42:33.841Z,7.10
2019-03-13T11:45:22.100Z,7.00
2019-03-13T11:48:22.512Z,6.90
2019-03-13T11:51:10.725Z,7.10
2019-03-13T11:53:58.674Z,7.20
2019-03-13T11:56:58.956Z,7.10
2019-03-13T11:59:43.198Z,7.00
2019-03-13T12:02:30.360Z,6.80
2019-03-13T12:05:27.417Z,6.70
2019-03-13T12:08:30.839Z,6.60
2019-03-13T12:11:15.239Z,6.40
2019-03-13T12:14:08.731Z,6.20
2019-03-13T12:17:05.883Z,6.10
2019-03-13T12:20:09.150Z,6.20
2019-03-13T12:22:50.091Z,6.20
2019-03-13T12:25:26.909Z,6.30
2019-03-13T12:28:22.507Z,6.30
2019-03-13T12:31:09.616Z,6.50
2019-03-13T12:33:53.654Z,6.90
2019-03-13T12:36:42.034Z,7.00
2019-03-13T12:39:30.231Z,7.20
2019-03-13T12:42:17.984Z,7.30
2019-03-13T12:44:57.602Z,7.00
2019-03-13T12:47:34.620Z,6.80
2019-03-13T12:50:41.064Z,6.50
2019-03-13T12:53:28.059Z,6.50
2019-03-13T12:56:15.064Z,6.20
2019-03-13T12:59:03.264Z,6.00
2019-03-13T13:01:47.384Z,6.00
2019-03-13T13:04:26.436Z,6.00
2019-03-13T13:07:20.900Z,6.00
2019-03-13T13:10:11.911Z,6.00
2019-03-13T13:13:10.941Z,6.10
2019-03-13T13:16:05.784Z,6.20
2019-03-13T13:19:02.891Z,6.40
2019-03-13T13:21:32.030Z,6.50
2019-03-13T13:24:01.239Z,6.50
2019-03-13T13:26:30.389Z,6.60
2019-03-13T13:28:59.565Z,6.60
2019-03-13T13:31:28.698Z,6.60
2019-03-13T13:33:57.858Z,6.60
2019-03-13T13:36:27.275Z,6.50
2019-03-13T13:38:56.670Z,6.40
2019-03-13T13:41:25.768Z,6.30
2019-03-13T13:43:54.892Z,6.30
2019-03-13T13:46:32.181Z,6.30
2019-03-13T13:49:01.296Z,6.40
2019-03-13T13:51:32.767Z,6.50
2019-03-13T13:54:01.294Z,6.60
2019-03-13T13:56:30.412Z,6.60
2019-03-13T13:58:59.556Z,6.60
2019-03-13T14:01:28.696Z,6.50
2019-03-13T14:03:57.839Z,6.50
2019-03-13T14:06:26.963Z,6.50
2019-03-13T14:08:56.089Z,6.50
2019-03-13T14:11:25.240Z,6.50
2019-03-13T14:13:54.380Z,6.50
2019-03-13T14:16:23.598Z,6.50
2019-03-13T14:18:52.802Z,6.50
2019-03-13T14:21:21.923Z,6.50
2019-03-13T14:23:51.156Z,6.50
2019-03-13T14:26:20.322Z,6.50
2019-03-13T14:28:49.576Z,6.50
2019-03-13T14:31:18.720Z,6.60
2019-03-13T14:33:48.197Z,6.60
2019-03-13T14:36:17.440Z,6.60
2019-03-13T14:38:46.593Z,6.60
2019-03-13T14:41:15.824Z,6.60
2019-03-13T14:43:44.964Z,6.60
2019-03-13T14:46:14.107Z,6.70
2019-03-13T14:48:43.286Z,6.70
2019-03-13T14:51:12.508Z,6.70
2019-03-13T14:53:41.653Z,6.80
2019-03-13T14:56:10.770Z,6.90
2019-03-13T14:58:39.947Z,7.00
2019-03-13T15:01:09.083Z,7.20
2019-03-13T15:03:41.260Z,7.30
2019-03-13T15:06:09.101Z,7.30
2019-03-13T15:08:38.357Z,7.30
2019-03-13T15:11:07.510Z,7.30
2019-03-13T15:13:36.731Z,7.30
2019-03-13T15:16:05.867Z,7.30
2019-03-13T15:18:34.988Z,7.30
2019-03-13T15:21:04.130Z,7.30
2019-03-13T15:23:33.267Z,7.20
2019-03-13T15:26:02.519Z,7.20
2019-03-13T15:28:31.666Z,7.10
2019-03-13T15:31:00.920Z,7.10
2019-03-13T15:33:30.125Z,7.10
2019-03-13T15:35:59.310Z,7.10
2019-03-13T15:38:28.469Z,7.00
2019-03-13T15:40:58.254Z,7.00
2019-03-13T15:43:27.703Z,7.00
2019-03-13T15:45:56.823Z,6.90
2019-03-13T15:48:25.958Z,6.80
2019-03-13T15:50:55.120Z,6.70
2019-03-13T15:53:24.269Z,6.80
2019-03-13T15:55:53.461Z,6.80
2019-03-13T15:58:22.664Z,6.80
2019-03-13T16:00:51.787Z,6.80
2019-03-13T16:03:21.052Z,6.80
2019-03-13T16:05:50.206Z,6.70
2019-03-13T16:08:19.379Z,6.60
2019-03-13T16:10:48.517Z,6.50
2019-03-13T16:13:17.715Z,6.40
2019-03-13T16:15:46.902Z,6.30
2019-03-13T16:18:16.097Z,6.30
2019-03-13T16:20:45.295Z,6.30
2019-03-13T16:23:17.062Z,6.20
2019-03-13T16:25:45.283Z,6.10
2019-03-13T16:28:14.417Z,5.90
2019-03-13T16:30:44.208Z,5.70
2019-03-13T16:33:13.323Z,5.50
2019-03-13T16:35:42.435Z,5.50
2019-03-13T16:38:11.566Z,5.30
2019-03-13T16:40:40.697Z,5.30
2019-03-13T16:43:09.857Z,5.10
2019-03-13T16:45:39.015Z,4.80
2019-03-13T16:48:08.119Z,4.50
2019-03-13T16:50:37.492Z,4.30
2019-03-13T16:53:06.736Z,4.30
2019-03-13T16:55:35.864Z,4.00
2019-03-13T16:58:05.020Z,4.10
2019-03-13T17:00:34.359Z,4.10
2019-03-13T17:03:03.498Z,4.10
2019-03-13T17:05:32.832Z,4.10
2019-03-13T17:08:01.996Z,4.20
2019-03-13T17:10:31.198Z,4.30
2019-03-13T17:13:00.943Z,4.30
2019-03-13T17:15:30.074Z,4.40
2019-03-13T17:17:59.225Z,4.50
2019-03-13T17:20:28.373Z,4.60
2019-03-13T17:22:57.692Z,4.60
2019-03-13T17:25:26.816Z,4.70
2019-03-13T17:27:55.962Z,4.90
2019-03-13T17:30:25.883Z,4.90
2019-03-13T17:32:55.015Z,5.00
2019-03-13T17:35:24.224Z,5.00
2019-03-13T17:37:53.986Z,5.10
2019-03-13T17:40:23.858Z,5.10
2019-03-13T17:42:53.191Z,5.20
2019-03-13T17:45:22.709Z,5.20
2019-03-13T17:47:52.108Z,5.30
2019-03-13T17:50:21.657Z,5.30
2019-03-13T17:52:51.124Z,5.30
2019-03-13T17:55:20.257Z,5.30
2019-03-13T17:57:49.393Z,5.20
2019-03-13T18:00:24.879Z,5.20
2019-03-13T18:02:54.058Z,5.20
2019-03-13T18:05:23.199Z,5.20
2019-03-13T18:07:52.320Z,5.20
2019-03-13T18:10:21.500Z,5.20
2019-03-13T18:12:50.631Z,5.10
2019-03-13T18:15:19.855Z,5.10
2019-03-13T18:17:49.066Z,5.00
2019-03-13T18:20:18.514Z,5.00
2019-03-13T18:22:47.631Z,5.00
2019-03-13T18:25:18.402Z,5.00
2019-03-13T18:27:48.120Z,4.90
2019-03-13T18:30:19.324Z,4.90
2019-03-13T18:32:59.291Z,4.90
2019-03-13T18:35:30.748Z,4.90
2019-03-13T18:38:02.631Z,5.00
2019-03-13T18:40:31.733Z,5.00
2019-03-13T18:43:06.540Z,5.10
2019-03-13T18:45:38.612Z,5.10
2019-03-13T18:48:10.903Z,5.10
2019-03-13T18:50:40.272Z,5.10
2019-03-13T18:53:12.089Z,5.10
2019-03-13T18:55:41.237Z,5.10
2019-03-13T18:58:10.427Z,5.10
2019-03-13T19:00:39.627Z,5.10
2019-03-13T19:03:08.822Z,5.20
2019-03-13T19:05:37.928Z,5.20
2019-03-13T19:08:07.473Z,5.30
2019-03-13T19:10:36.708Z,5.30
2019-03-13T19:13:06.023Z,5.30
2019-03-13T19:15:40.152Z,5.30
2019-03-13T19:18:09.508Z,5.30
2019-03-13T19:20:38.668Z,5.30
2019-03-13T19:23:07.775Z,5.40
2019-03-13T19:25:36.919Z,5.40
2019-03-13T19:28:06.105Z,5.40
2019-03-13T19:30:37.844Z,5.40
2019-03-13T19:33:06.248Z,5.40
2019-03-13T19:35:35.419Z,5.50
2019-03-13T19:38:05.500Z,5.50
2019-03-13T19:40:34.989Z,5.50
2019-03-13T19:43:04.118Z,5.50
2019-03-13T19:45:35.892Z,5.50
2019-03-13T19:48:05.593Z,5.50
2019-03-13T19:50:34.800Z,5.50
2019-03-13T19:53:04.485Z,5.40
2019-03-13T19:55:33.744Z,5.40
2019-03-13T19:58:03.071Z,5.40
2019-03-13T20:00:32.263Z,5.30
2019-03-13T20:03:02.057Z,5.40
2019-03-13T20:05:44.218Z,5.40
2019-03-13T20:08:02.222Z,5.40
2019-03-13T20:10:31.571Z,5.40
2019-03-13T20:13:00.826Z,5.40
2019-03-13T20:15:30.681Z,5.40
2019-03-13T20:17:59.902Z,5.40
2019-03-13T20:20:29.114Z,5.30
2019-03-13T20:22:59.182Z,5.30
2019-03-13T20:25:28.512Z,5.30
2019-03-13T20:27:57.758Z,5.30
2019-03-13T20:30:27.344Z,5.20
2019-03-13T20:32:56.826Z,5.20
2019-03-13T20:35:26.076Z,5.20
2019-03-13T20:37:55.386Z,5.10
2019-03-13T20:40:25.700Z,5.10
2019-03-13T20:42:55.336Z,5.10
2019-03-13T20:45:24.640Z,5.00
2019-03-13T20:47:53.921Z,4.90
2019-03-13T20:50:35.774Z,4.80
2019-03-13T20:52:54.240Z,4.80
2019-03-13T20:55:23.428Z,4.80
2019-03-13T20:57:52.628Z,4.80
2019-03-13T21:00:23.772Z,4.80
2019-03-13T21:02:53.123Z,4.80
2019-03-13T21:05:22.387Z,4.80
2019-03-13T21:07:51.539Z,4.80
2019-03-13T21:10:20.838Z,4.90
2019-03-13T21:12:50.267Z,4.80
2019-03-13T21:15:19.507Z,4.80
2019-03-13T21:17:48.659Z,4.80
2019-03-13T21:20:18.230Z,4.80
2019-03-13T21:22:47.362Z,4.80
2019-03-13T21:25:16.504Z,4.80
2019-03-13T21:27:47.705Z,4.90
2019-03-13T21:30:19.011Z,4.80
2019-03-13T21:32:48.133Z,4.80
2019-03-13T21:35:17.313Z,4.90
2019-03-13T21:37:46.483Z,4.90
2019-03-13T21:40:16.092Z,4.80
2019-03-13T21:42:45.543Z,4.80
2019-03-13T21:45:22.195Z,4.80
2019-03-13T21:47:46.396Z,4.80
2019-03-13T21:50:15.564Z,4.80
2019-03-13T21:52:44.667Z,4.80
2019-03-13T21:55:13.907Z,4.80
2019-03-13T21:57:43.129Z,4.70
2019-03-13T22:00:15.913Z,4.70
2019-03-13T22:02:45.105Z,4.80
2019-03-13T22:05:25.080Z,4.70
2019-03-13T22:07:45.260Z,4.80
2019-03-13T22:10:15.995Z,4.80
2019-03-13T22:12:45.138Z,4.80
2019-03-13T22:15:15.085Z,4.90
2019-03-13T22:17:44.185Z,4.90
2019-03-13T22:20:13.719Z,4.90
2019-03-13T22:22:42.821Z,4.80
2019-03-13T22:25:12.755Z,4.80
2019-03-13T22:27:41.937Z,4.80
2019-03-13T22:30:14.572Z,4.80
2019-03-13T22:32:43.729Z,4.80
2019-03-13T22:35:12.986Z,4.80
2019-03-13T22:37:42.196Z,4.70
2019-03-13T22:40:11.784Z,4.70
2019-03-13T22:42:40.966Z,4.70
2019-03-13T22:45:10.927Z,4.80
2019-03-13T22:47:42.910Z,4.80
2019-03-13T22:50:12.794Z,4.80
2019-03-13T22:52:41.928Z,4.70
2019-03-13T22:55:11.083Z,4.70
2019-03-13T22:57:40.231Z,4.60
2019-03-13T23:00:25.278Z,4.60
2019-03-13T23:02:54.352Z,4.60
2019-03-13T23:05:23.486Z,4.60
2019-03-13T23:07:52.629Z,4.50
2019-03-13T23:10:31.884Z,4.50
2019-03-13T23:13:01.079Z,4.60
2019-03-13T23:15:30.186Z,4.60
2019-03-13T23:17:59.399Z,4.60
2019-03-13T23:20:29.078Z,4.60
2019-03-13T23:22:58.187Z,4.50
2019-03-13T23:25:27.325Z,4.60
2019-03-13T23:27:56.434Z,4.60
2019-03-13T23:30:25.555Z,4.60
2019-03-13T23:32:54.702Z,4.60
2019-03-13T23:35:23.823Z,4.60
2019-03-13T23:37:52.962Z,4.60
2019-03-13T23:40:22.075Z,4.60
2019-03-13T23:42:51.238Z,4.60
2019-03-13T23:45:20.392Z,4.50
2019-03-13T23:47:49.524Z,4.50
2019-03-13T23:50:18.678Z,4.60
2019-03-13T23:52:47.889Z,4.60
2019-03-13T23:55:17.021Z,4.70
2019-03-13T23:57:46.153Z,4.70
